Terminal Aerodrome Forecast
Issued by NWS

Home | Current Version | Previous Version | Text Only | Print | Product List | Glossary On
Versions: 1 2 3 4 5 6 7 8 9 10 11 12 13
362
FTUS42 KMLB 210524
TAFISM
TAF
KISM 210524Z 2106/2206 02007KT P6SM SCT015 BKN060
      TEMPO 2106/2110 BKN015
     FM211000 03006KT P6SM BKN012 BKN060
     FM211400 08012G18KT P6SM VCSH SCT020 BKN035
     FM211800 09016G25KT P6SM VCSH BKN025 OVC050
     FM220000 08013KT P6SM VCSH BKN020 OVC040=

USA.gov is the U.S. government's official web portal to all federal, state and local government web resources and services.